Terminal Aerodrome Forecast
Issued by NWS St Louis, MO

Home | Current Version | Previous Version | Text Only | Print | Product List | Glossary On
Versions: 1 2 3 4 5 6 7 8 9 10 11 12 13 14 15 16 17 18
000
FTUS43 KLSX 200345 AAC
TAFCOU
TAF AMD
KCOU 200345Z 2004/2024 09012G24KT 6SM -SHRA VCTS BKN008 OVC035CB
      TEMPO 2004/2008 2SM TSRA OVC015CB
     FM201200 13009KT P6SM OVC030
     FM201400 16009KT P6SM OVC035
     FM201800 20011G18KT P6SM OVC040=

USA.gov is the U.S. government's official web portal to all federal, state and local government web resources and services.